• Join FlightAware (Why Join?)
  • Login
  • US Flag 
09:31PM EDT


 

Airport Tracker/Info


-or-


 

Live Flight TrackerFlight Track Log ✈ N102WY ✈ 30-Oct-2013 ✈ KSHR - KRWL

Flight Track Log - Related Links

Times and Time Zones

All times are in EDT time to prevent confusion due to time zone crossing. See the N102WY flight status page for this flight to view local times or setup timezone preferences in your user account.

Time Position Orientation Groundspeed Altitude Reporting Facility
EDT Latitude Longitude Course Direction KTS MPH feet Rate Location/Type
03:25PM 44.7958 -106.8628 180° South 317 365 12,900  Level Denver Center
03:27PM 44.7019 -106.8617 180° South 327 376 15,000 1,260 Climbing Salt Lake Center
03:28PM 44.5822 -106.8806 186° South 345 397 15,700 2,100 Climbing Salt Lake Center
03:29PM 44.4831 -106.8933 185° South 355 409 19,400 3,420 Climbing Salt Lake Center
03:29PM 44.4431 -106.8986 185° South 358 412 20,700 3,240 Climbing Salt Lake Center
03:30PM 44.3433 -106.9108 185° South 359 413 24,100 3,240 Climbing Salt Lake Center
03:31PM 44.2481 -106.9225 185° South 350 403 27,400 2,820 Climbing Salt Lake Center
03:32PM 44.1536 -106.9350 185° South 343 395 30,000 2,280 Climbing Salt Lake Center
03:33PM 44.0522 -106.9458 184° South 360 414 32,200 1,800 Climbing Salt Lake Center
03:34PM 43.9478 -106.9586 185° South 373 429 33,800 1,320 Climbing Salt Lake Center
03:35PM 43.8119 -106.9744 185° South 400 460 35,000 540 Climbing Salt Lake Center
03:36PM 43.6994 -106.9872 185° South 408 470 35,000  Level Salt Lake Center
03:37PM 43.5883 -107.0006 185° South 401 461 35,000  Level Salt Lake Center
03:38PM 43.4786 -107.0136 185° South 398 458 35,000  Level Salt Lake Center
03:39PM 43.3708 -107.0264 185° South 392 451 35,000  Level Salt Lake Center
03:40PM 43.2631 -107.0372 184° South 389 448 35,000  Level Salt Lake Center
03:41PM 43.1347 -107.0531 185° South 387 445 35,000  Level Salt Lake Center
03:43PM 43.0283 -107.0642 184° South 385 443 35,000 -720 Level Salt Lake Center
03:44PM 42.9225 -107.0775 185° South 382 440 33,600 -1,680 Descending Salt Lake Center
03:44PM 42.8597 -107.0833 184° South 376 433 32,100 -2,520 Descending Denver Center
03:45PM 42.7450 -107.0964 185° South 373 429 29,300 -2,520 Descending Denver Center
03:46PM 42.6508 -107.1069 185° South 360 414 27,000 -2,460 Descending Denver Center
03:47PM 42.5492 -107.0950 175° South 345 397 24,300 -2,700 Descending Denver Center
03:48PM 42.4422 -107.0703 170° South 344 396 21,500 -2,520 Descending Denver Center
03:49PM 42.3483 -107.0472 170° South 356 410 19,100 -2,400 Descending Denver Center
03:50PM 42.2539 -107.0258 170° South 358 412 16,700 -2,400 Descending Denver Center
03:51PM 42.1578 -107.0008 169° South 330 380 14,300 -2,160 Descending Denver Center
03:52PM 42.0842 -106.9836 170° South 309 356 12,300 -1,620 Descending Denver Center
03:54PM 42.0042 -106.9664 171° South 286 329 11,000 -660 Descending Denver Center
03:55PM 41.9467 -106.9525 170° South 262 302 11,000 -660 Level Denver Center
03:56PM 41.9164 -106.9947 226° Southwest 181 208 9,700 -900 Descending Denver Center
03:57PM 41.8914 -107.0375 232° Southwest 159 183 9,200 -300 Descending Denver Center
03:58PM 41.8650 -107.0864 234° Southwest 156 180 9,100 -120 Descending Denver Center